createdAt,value
2019-05-10T00:00:46.368Z,7.98
2019-05-10T00:03:38.313Z,7.94
2019-05-10T00:06:31.019Z,7.82
2019-05-10T00:09:03.294Z,7.67
2019-05-10T00:11:53.133Z,7.57
2019-05-10T00:14:57.668Z,7.55
2019-05-10T00:17:31.585Z,7.60
2019-05-10T00:20:05.360Z,7.66
2019-05-10T00:22:39.016Z,7.67
2019-05-10T00:25:12.157Z,7.67
2019-05-10T00:27:45.786Z,7.64
2019-05-10T00:30:18.744Z,7.61
2019-05-10T00:32:52.319Z,7.53
2019-05-10T00:35:24.755Z,7.48
2019-05-10T00:37:57.886Z,7.51
2019-05-10T00:40:31.145Z,7.54
2019-05-10T00:43:04.098Z,7.50
2019-05-10T00:45:37.877Z,7.49
2019-05-10T00:48:11.101Z,7.38
2019-05-10T00:50:44.572Z,7.33
2019-05-10T00:53:18.152Z,7.29
2019-05-10T00:55:52.326Z,7.24
2019-05-10T00:58:26.018Z,7.23
2019-05-10T01:00:59.631Z,7.22
2019-05-10T01:03:32.788Z,7.27
2019-05-10T01:06:06.247Z,7.29
2019-05-10T01:08:39.532Z,7.31
2019-05-10T01:11:12.972Z,7.29
2019-05-10T01:13:46.424Z,7.30
2019-05-10T01:16:20.078Z,7.29
2019-05-10T01:18:53.464Z,7.31
2019-05-10T01:21:26.738Z,7.35
2019-05-10T01:24:00.060Z,7.38
2019-05-10T01:26:33.563Z,7.40
2019-05-10T01:29:07.254Z,7.40
2019-05-10T01:31:40.866Z,7.44
2019-05-10T01:34:14.034Z,7.46
2019-05-10T01:36:47.009Z,7.38
2019-05-10T01:39:20.156Z,7.29
2019-05-10T01:41:54.059Z,7.26
2019-05-10T01:44:27.306Z,7.23
2019-05-10T01:47:00.411Z,7.19
2019-05-10T01:49:33.669Z,7.21
2019-05-10T01:52:06.737Z,7.25
2019-05-10T01:54:40.007Z,7.27
2019-05-10T01:57:14.038Z,7.22
2019-05-10T01:59:47.514Z,7.16
2019-05-10T02:02:22.633Z,7.11
2019-05-10T02:04:56.181Z,7.07
2019-05-10T02:07:34.134Z,7.02
2019-05-10T02:10:07.683Z,6.98
2019-05-10T02:12:41.211Z,6.94
2019-05-10T02:15:14.747Z,6.95
2019-05-10T02:17:48.279Z,6.85
2019-05-10T02:20:21.669Z,6.79
2019-05-10T02:22:54.759Z,6.74
2019-05-10T02:25:28.132Z,6.78
2019-05-10T02:28:01.977Z,6.81
2019-05-10T02:30:35.483Z,6.83
2019-05-10T02:33:09.140Z,6.87
2019-05-10T02:35:42.274Z,6.87
2019-05-10T02:38:15.601Z,6.85
2019-05-10T02:40:49.254Z,6.84
2019-05-10T02:43:22.271Z,6.83
2019-05-10T02:45:55.331Z,6.86
2019-05-10T02:48:28.171Z,6.89
2019-05-10T02:51:00.994Z,6.87
2019-05-10T02:53:34.431Z,6.84
2019-05-10T02:56:07.787Z,6.81
2019-05-10T02:58:42.371Z,6.84
2019-05-10T03:01:18.327Z,6.90
2019-05-10T03:03:52.311Z,6.94
2019-05-10T03:06:27.605Z,6.98
2019-05-10T03:09:02.705Z,7.02
2019-05-10T03:11:49.675Z,7.04
2019-05-10T03:14:25.492Z,7.07
2019-05-10T03:16:59.909Z,6.90
2019-05-10T03:19:34.262Z,6.83
2019-05-10T03:22:11.317Z,6.72
2019-05-10T03:24:44.567Z,6.71
2019-05-10T03:27:17.888Z,6.75
2019-05-10T03:29:51.601Z,6.84
2019-05-10T03:32:25.431Z,7.00
2019-05-10T03:34:59.469Z,7.16
2019-05-10T03:37:33.105Z,7.38
2019-05-10T03:40:08.241Z,7.50
2019-05-10T03:42:41.422Z,7.41
2019-05-10T03:45:14.748Z,7.40
2019-05-10T03:47:47.864Z,7.48
2019-05-10T03:50:21.509Z,7.55
2019-05-10T03:52:55.156Z,7.64
2019-05-10T03:55:28.289Z,7.64
2019-05-10T03:58:01.748Z,7.55
2019-05-10T04:00:35.618Z,7.54
2019-05-10T04:03:10.006Z,7.54
2019-05-10T04:05:43.914Z,7.57
2019-05-10T04:08:17.659Z,7.60
2019-05-10T04:10:50.768Z,7.65
2019-05-10T04:13:24.100Z,7.72
2019-05-10T04:15:57.195Z,7.78
2019-05-10T04:18:30.873Z,7.76
2019-05-10T04:21:04.561Z,7.77
2019-05-10T04:23:37.587Z,7.77
2019-05-10T04:26:10.860Z,7.69
2019-05-10T04:28:45.416Z,7.76
2019-05-10T04:31:18.520Z,7.80
2019-05-10T04:33:53.065Z,7.86
2019-05-10T04:36:26.543Z,7.94
2019-05-10T04:39:00.290Z,8.08
2019-05-10T04:41:33.640Z,8.18
2019-05-10T04:44:07.173Z,8.30
2019-05-10T04:46:40.653Z,8.41
2019-05-10T04:49:13.775Z,8.54
2019-05-10T04:51:48.103Z,8.65
2019-05-10T04:54:21.668Z,8.76
2019-05-10T04:56:59.569Z,8.86
2019-05-10T04:59:29.822Z,8.88
2019-05-10T05:02:04.470Z,8.88
2019-05-10T05:04:37.818Z,8.86
2019-05-10T05:07:10.934Z,8.90
2019-05-10T05:09:44.217Z,8.85
2019-05-10T05:12:17.156Z,8.68
2019-05-10T05:14:50.216Z,8.34
2019-05-10T05:17:23.900Z,8.54
2019-05-10T05:19:57.943Z,8.64
2019-05-10T05:22:33.907Z,8.71
2019-05-10T05:25:07.118Z,8.82
2019-05-10T05:27:40.891Z,8.87
2019-05-10T05:30:16.452Z,8.93
2019-05-10T05:32:50.051Z,8.97
2019-05-10T05:35:22.944Z,9.06
2019-05-10T05:37:55.927Z,9.10
2019-05-10T05:40:29.569Z,9.14
2019-05-10T05:43:08.211Z,9.19
2019-05-10T05:45:37.871Z,9.25
2019-05-10T05:48:11.114Z,9.35
2019-05-10T05:50:45.114Z,9.48
2019-05-10T05:53:22.364Z,9.64
2019-05-10T05:55:54.162Z,9.77
2019-05-10T05:58:28.326Z,10.02
2019-05-10T06:01:02.806Z,10.07
2019-05-10T06:03:36.226Z,10.20
2019-05-10T06:06:21.449Z,10.33
2019-05-10T06:08:45.616Z,10.53
2019-05-10T06:11:35.144Z,10.69
2019-05-10T06:14:10.799Z,10.88
2019-05-10T06:16:44.791Z,11.15
2019-05-10T06:19:14.483Z,11.32
2019-05-10T06:21:48.087Z,11.30
2019-05-10T06:24:22.103Z,11.55
2019-05-10T06:26:58.199Z,11.91
2019-05-10T06:29:30.929Z,12.25
2019-05-10T06:32:04.683Z,12.44
2019-05-10T06:34:40.204Z,12.55
2019-05-10T06:37:15.676Z,12.81
2019-05-10T06:39:49.566Z,13.06
2019-05-10T06:42:23.523Z,13.47
2019-05-10T06:44:56.855Z,13.99
2019-05-10T06:47:30.480Z,14.52
2019-05-10T06:50:03.665Z,15.04
2019-05-10T06:52:37.515Z,15.57
2019-05-10T06:55:11.529Z,16.50
2019-05-10T06:57:50.562Z,18.31
2019-05-10T07:00:20.370Z,19.25
2019-05-10T07:02:53.538Z,19.45
2019-05-10T07:05:28.522Z,18.86
2019-05-10T07:08:13.961Z,18.32
2019-05-10T07:10:37.478Z,17.80
2019-05-10T07:13:11.429Z,17.22
2019-05-10T07:15:45.005Z,16.76
2019-05-10T07:18:22.736Z,16.45
2019-05-10T07:20:53.397Z,16.18
2019-05-10T07:23:29.867Z,16.08
2019-05-10T07:26:02.228Z,15.82
2019-05-10T07:28:36.013Z,15.57
2019-05-10T07:31:09.443Z,15.28
2019-05-10T07:33:53.240Z,15.20
2019-05-10T07:36:29.352Z,15.04
2019-05-10T07:39:02.702Z,15.24
2019-05-10T07:41:37.300Z,15.36
2019-05-10T07:44:11.463Z,15.22
2019-05-10T07:46:46.457Z,15.33
2019-05-10T07:49:23.947Z,15.37
2019-05-10T07:51:54.736Z,15.51
2019-05-10T07:54:29.939Z,15.60
2019-05-10T07:57:03.608Z,15.63
2019-05-10T07:59:50.135Z,15.43
2019-05-10T08:02:16.816Z,15.58
2019-05-10T08:04:53.512Z,15.78
2019-05-10T08:07:29.239Z,16.03
2019-05-10T08:10:04.844Z,16.26
2019-05-10T08:12:44.506Z,16.64
2019-05-10T08:15:15.375Z,16.76
2019-05-10T08:17:50.958Z,17.00
2019-05-10T08:20:42.219Z,16.83
2019-05-10T08:23:03.168Z,16.35
2019-05-10T08:25:44.329Z,16.95
2019-05-10T08:28:13.633Z,17.26
2019-05-10T08:30:53.694Z,17.55
2019-05-10T08:33:24.698Z,17.50
2019-05-10T08:36:04.985Z,17.34
2019-05-10T08:38:39.699Z,17.75
2019-05-10T08:41:14.724Z,18.23
2019-05-10T08:43:48.484Z,17.18
2019-05-10T08:46:28.641Z,17.94
2019-05-10T08:49:02.306Z,17.57
2019-05-10T08:51:43.753Z,17.74
2019-05-10T08:54:13.093Z,17.47
2019-05-10T08:56:54.999Z,17.33
2019-05-10T08:59:26.667Z,17.94
2019-05-10T09:02:02.184Z,18.07
2019-05-10T09:04:45.389Z,18.48
2019-05-10T09:07:14.123Z,18.01
2019-05-10T09:09:50.170Z,19.14
2019-05-10T09:12:23.830Z,19.04
2019-05-10T09:15:06.733Z,19.70
2019-05-10T09:17:33.497Z,20.62
2019-05-10T09:20:12.060Z,20.82
2019-05-10T09:22:43.925Z,19.68
2019-05-10T09:25:20.212Z,19.88
2019-05-10T09:27:53.391Z,20.15
2019-05-10T09:30:36.908Z,20.59
2019-05-10T09:33:14.255Z,20.01
2019-05-10T09:35:52.361Z,19.70
2019-05-10T09:38:22.557Z,20.21
2019-05-10T09:40:56.578Z,20.75
2019-05-10T09:43:31.994Z,20.87
2019-05-10T09:46:06.076Z,20.54
2019-05-10T09:48:44.717Z,21.22
2019-05-10T09:51:19.216Z,21.69
2019-05-10T09:53:52.236Z,22.20
2019-05-10T09:56:27.603Z,22.61
2019-05-10T09:59:02.111Z,23.69
2019-05-10T10:01:37.125Z,24.41
2019-05-10T10:04:11.430Z,26.15
2019-05-10T10:06:48.222Z,28.23
2019-05-10T10:09:24.590Z,27.97
2019-05-10T10:12:00.842Z,25.57
2019-05-10T10:14:37.814Z,25.87
2019-05-10T10:17:08.249Z,26.05
2019-05-10T10:19:42.862Z,26.33
2019-05-10T10:22:17.474Z,25.50
2019-05-10T10:24:55.110Z,24.44
2019-05-10T10:27:34.246Z,24.12
2019-05-10T10:30:06.510Z,24.10
2019-05-10T10:32:37.794Z,23.75
2019-05-10T10:35:13.294Z,23.40
2019-05-10T10:37:47.635Z,23.27
2019-05-10T10:40:22.201Z,23.43
2019-05-10T10:42:57.735Z,24.70
2019-05-10T10:45:31.278Z,26.99
2019-05-10T10:48:08.542Z,26.65
2019-05-10T10:50:44.312Z,26.28
2019-05-10T10:53:17.814Z,27.32
2019-05-10T10:55:54.396Z,26.33
2019-05-10T10:58:29.659Z,25.23
2019-05-10T11:01:10.547Z,22.74
2019-05-10T11:03:38.923Z,23.18
2019-05-10T11:06:15.241Z,23.41
2019-05-10T11:08:48.198Z,23.46
2019-05-10T11:11:21.934Z,22.73
2019-05-10T11:14:00.482Z,22.40
2019-05-10T11:16:31.888Z,22.44
2019-05-10T11:19:11.136Z,22.63
2019-05-10T11:21:41.551Z,23.01
2019-05-10T11:24:18.218Z,23.62
2019-05-10T11:26:52.133Z,23.78
2019-05-10T11:29:28.032Z,23.76
2019-05-10T11:32:15.333Z,24.09
2019-05-10T11:34:37.766Z,24.39
2019-05-10T11:37:11.720Z,24.18
2019-05-10T11:39:46.944Z,23.85
2019-05-10T11:42:21.130Z,23.95
2019-05-10T11:44:55.107Z,24.01
2019-05-10T11:47:31.093Z,23.86
2019-05-10T11:50:06.385Z,23.53
2019-05-10T11:52:42.754Z,22.81
2019-05-10T11:55:16.541Z,22.55
2019-05-10T11:58:03.256Z,22.33
2019-05-10T12:00:34.414Z,22.07
2019-05-10T12:05:45.454Z,22.25
2019-05-10T12:08:22.177Z,22.24
2019-05-10T12:13:32.578Z,22.39
2019-05-10T12:16:04.642Z,22.38
2019-05-10T12:18:46.536Z,22.14
2019-05-10T12:21:13.735Z,21.77
2019-05-10T12:23:54.807Z,21.77
2019-05-10T12:26:16.068Z,22.16
2019-05-10T12:26:27.549Z,22.42
2019-05-10T12:29:11.521Z,21.73
2019-05-10T12:31:41.493Z,21.69
2019-05-10T12:34:15.176Z,21.66
2019-05-10T12:36:51.753Z,21.55
2019-05-10T12:39:25.047Z,21.56
2019-05-10T12:41:59.053Z,21.78
2019-05-10T12:44:33.486Z,22.06
2019-05-10T12:47:11.337Z,22.77
2019-05-10T12:49:45.699Z,23.56
2019-05-10T12:52:23.463Z,23.87
2019-05-10T12:54:58.697Z,24.27
2019-05-10T12:57:32.762Z,24.41
2019-05-10T13:00:13.327Z,24.78
2019-05-10T13:02:44.969Z,24.36
2019-05-10T13:05:18.055Z,24.30
2019-05-10T13:07:52.401Z,24.23
2019-05-10T13:10:25.834Z,23.56
2019-05-10T13:12:59.660Z,23.71
2019-05-10T13:15:33.493Z,24.20
2019-05-10T13:18:09.298Z,24.70
2019-05-10T13:20:44.708Z,24.23
2019-05-10T13:23:26.515Z,24.50
2019-05-10T13:26:02.302Z,24.83
2019-05-10T13:28:36.927Z,25.08
2019-05-10T13:31:18.238Z,25.02
2019-05-10T13:33:53.640Z,24.64
2019-05-10T13:36:30.751Z,24.68
2019-05-10T13:39:06.930Z,24.50
2019-05-10T13:41:45.529Z,24.34
2019-05-10T13:44:19.589Z,24.10
2019-05-10T13:46:53.593Z,24.94
2019-05-10T13:49:30.406Z,25.85
2019-05-10T13:52:05.516Z,25.82
2019-05-10T13:54:40.721Z,25.42
2019-05-10T13:57:15.970Z,24.29
2019-05-10T13:59:55.150Z,23.91
2019-05-10T14:02:34.220Z,23.97
2019-05-10T14:05:06.378Z,24.01
2019-05-10T14:07:49.738Z,24.06
2019-05-10T14:10:23.371Z,23.43
2019-05-10T14:12:55.874Z,24.68
2019-05-10T14:15:31.658Z,24.20
2019-05-10T14:18:05.887Z,23.29
2019-05-10T14:20:42.488Z,23.00
2019-05-10T14:23:17.956Z,22.81
2019-05-10T14:25:51.673Z,22.82
2019-05-10T14:28:26.106Z,22.90
2019-05-10T14:31:00.798Z,22.87
2019-05-10T14:33:40.496Z,22.91
2019-05-10T14:36:14.697Z,22.90
2019-05-10T14:38:53.835Z,22.99
2019-05-10T14:41:25.964Z,22.99
2019-05-10T14:44:00.624Z,23.08
2019-05-10T14:46:34.574Z,23.16
2019-05-10T14:49:09.829Z,23.23
2019-05-10T14:51:58.253Z,23.24
2019-05-10T14:54:20.902Z,23.13
2019-05-10T14:56:56.279Z,22.96
2019-05-10T14:59:30.258Z,22.96
2019-05-10T15:02:06.618Z,23.00
2019-05-10T15:04:46.358Z,23.00
2019-05-10T15:07:17.750Z,23.03
2019-05-10T15:09:54.221Z,22.99
2019-05-10T15:12:26.933Z,23.02
2019-05-10T15:15:00.706Z,23.12
2019-05-10T15:17:34.670Z,22.98
2019-05-10T15:20:08.392Z,22.99
2019-05-10T15:22:41.822Z,23.27
2019-05-10T15:25:15.850Z,23.85
2019-05-10T15:27:49.660Z,24.20
2019-05-10T15:30:23.543Z,24.38
2019-05-10T15:32:56.686Z,24.49
2019-05-10T15:35:30.556Z,24.66
2019-05-10T15:38:04.301Z,24.58
2019-05-10T15:40:38.762Z,24.08
2019-05-10T15:43:17.235Z,23.90
2019-05-10T15:45:52.838Z,23.67
2019-05-10T15:48:27.462Z,23.01
2019-05-10T15:51:02.988Z,22.50
2019-05-10T15:53:37.102Z,22.02
2019-05-10T15:56:13.553Z,21.50
2019-05-10T15:58:47.539Z,21.50
2019-05-10T16:01:27.368Z,21.80
2019-05-10T16:03:58.184Z,21.94
2019-05-10T16:06:37.751Z,22.06
2019-05-10T16:09:17.387Z,22.17
2019-05-10T16:11:48.202Z,21.94
2019-05-10T16:14:22.385Z,21.72
2019-05-10T16:16:59.316Z,21.65
2019-05-10T16:19:33.040Z,21.71
2019-05-10T16:22:08.746Z,21.84
2019-05-10T16:24:44.429Z,21.94
2019-05-10T16:27:17.965Z,22.02
2019-05-10T16:29:51.038Z,22.00
2019-05-10T16:32:32.181Z,22.01
2019-05-10T16:35:05.585Z,21.96
2019-05-10T16:37:37.128Z,21.77
2019-05-10T16:40:10.653Z,21.71
2019-05-10T16:42:43.821Z,21.51
2019-05-10T16:45:17.425Z,21.42
2019-05-10T16:47:51.825Z,21.32
2019-05-10T16:50:31.728Z,21.24
2019-05-10T16:53:05.601Z,21.13
2019-05-10T16:55:41.005Z,21.06
2019-05-10T16:58:17.529Z,20.98
2019-05-10T17:00:50.793Z,20.93
2019-05-10T17:03:25.242Z,20.79
2019-05-10T17:06:03.845Z,20.74
2019-05-10T17:08:36.880Z,20.64
2019-05-10T17:11:10.118Z,20.51
2019-05-10T17:13:45.300Z,20.40
2019-05-10T17:16:19.124Z,20.31
2019-05-10T17:18:55.179Z,20.21
2019-05-10T17:21:28.524Z,20.15
2019-05-10T17:24:02.229Z,20.07
2019-05-10T17:26:35.800Z,20.00
2019-05-10T17:29:12.855Z,19.88
2019-05-10T17:31:47.611Z,19.78
2019-05-10T17:34:29.165Z,19.68
2019-05-10T17:36:57.848Z,19.57
2019-05-10T17:39:34.173Z,19.46
2019-05-10T17:42:08.558Z,19.34
2019-05-10T17:44:46.388Z,19.22
2019-05-10T17:47:20.846Z,19.10
2019-05-10T17:49:57.474Z,18.99
2019-05-10T17:52:32.155Z,18.91
2019-05-10T17:55:10.821Z,18.79
2019-05-10T17:57:41.682Z,18.66
2019-05-10T18:00:16.759Z,18.56
2019-05-10T18:02:50.277Z,18.43
2019-05-10T18:05:24.255Z,18.22
2019-05-10T18:07:59.690Z,17.97
2019-05-10T18:10:33.686Z,17.77
2019-05-10T18:13:07.339Z,17.48
2019-05-10T18:15:41.450Z,17.17
2019-05-10T18:18:14.450Z,16.88
2019-05-10T18:20:47.914Z,16.60
2019-05-10T18:23:22.967Z,16.41
2019-05-10T18:25:58.380Z,16.17
2019-05-10T18:28:32.053Z,15.96
2019-05-10T18:31:05.515Z,15.83
2019-05-10T18:33:44.798Z,15.79
2019-05-10T18:36:15.391Z,15.65
2019-05-10T18:38:50.453Z,15.54
2019-05-10T18:41:24.994Z,15.41
2019-05-10T18:43:59.081Z,15.31
2019-05-10T18:46:32.870Z,15.18
2019-05-10T18:49:07.231Z,15.07
2019-05-10T18:51:41.261Z,14.99
2019-05-10T18:54:15.687Z,14.92
2019-05-10T18:56:49.668Z,14.81
2019-05-10T18:59:23.449Z,14.70
2019-05-10T19:01:58.039Z,14.55
2019-05-10T19:04:35.689Z,14.53
2019-05-10T19:07:10.546Z,14.50
2019-05-10T19:09:45.033Z,14.44
2019-05-10T19:12:22.633Z,14.40
2019-05-10T19:14:55.857Z,14.43
2019-05-10T19:17:29.750Z,14.36
2019-05-10T19:20:09.295Z,14.22
2019-05-10T19:22:41.307Z,14.16
2019-05-10T19:25:15.899Z,14.10
2019-05-10T19:27:51.058Z,13.99
2019-05-10T19:30:25.428Z,13.85
2019-05-10T19:32:59.618Z,13.78
2019-05-10T19:35:35.708Z,13.63
2019-05-10T19:38:20.208Z,13.53
2019-05-10T19:40:54.448Z,13.42
2019-05-10T19:43:28.540Z,13.26
2019-05-10T19:46:04.089Z,13.18
2019-05-10T19:48:38.660Z,13.07
2019-05-10T19:51:12.518Z,12.96
2019-05-10T19:53:47.335Z,12.83
2019-05-10T19:56:21.346Z,12.74
2019-05-10T19:58:55.638Z,12.67
2019-05-10T20:01:29.308Z,12.56
2019-05-10T20:04:03.799Z,12.54
2019-05-10T20:06:39.783Z,12.49
2019-05-10T20:09:13.733Z,12.43
2019-05-10T20:11:49.598Z,12.36
2019-05-10T20:14:24.546Z,12.28
2019-05-10T20:16:58.513Z,12.25
2019-05-10T20:19:33.094Z,12.21
2019-05-10T20:22:07.351Z,12.23
2019-05-10T20:24:42.080Z,12.17
2019-05-10T20:27:16.310Z,12.12
2019-05-10T20:29:51.666Z,12.04
2019-05-10T20:32:28.013Z,11.99
2019-05-10T20:35:02.351Z,11.95
2019-05-10T20:37:35.977Z,11.86
2019-05-10T20:40:11.686Z,11.79
2019-05-10T20:42:45.958Z,11.72
2019-05-10T20:45:20.166Z,11.62
2019-05-10T20:47:54.347Z,11.55
2019-05-10T20:50:28.373Z,11.54
2019-05-10T20:53:02.510Z,11.47
2019-05-10T20:55:36.643Z,11.40
2019-05-10T20:58:11.464Z,11.44
2019-05-10T21:00:52.001Z,11.40
2019-05-10T21:03:28.001Z,11.45
2019-05-10T21:06:02.982Z,11.42
2019-05-10T21:08:37.738Z,11.49
2019-05-10T21:11:12.788Z,11.53
2019-05-10T21:13:47.707Z,11.56
2019-05-10T21:16:23.060Z,11.51
2019-05-10T21:18:57.278Z,11.44
2019-05-10T21:21:32.093Z,11.36
2019-05-10T21:24:06.848Z,11.26
2019-05-10T21:26:48.505Z,11.17
2019-05-10T21:29:24.290Z,11.09
2019-05-10T21:31:59.383Z,11.00
2019-05-10T21:34:33.373Z,10.94
2019-05-10T21:37:07.601Z,10.85
2019-05-10T21:39:41.477Z,10.73
2019-05-10T21:42:15.293Z,10.62
2019-05-10T21:44:49.371Z,10.53
2019-05-10T21:47:23.758Z,10.48
2019-05-10T21:49:57.254Z,10.43
2019-05-10T21:52:31.450Z,10.36
2019-05-10T21:55:04.453Z,10.29
2019-05-10T21:57:38.499Z,10.26
2019-05-10T22:00:13.617Z,10.24
2019-05-10T22:02:47.654Z,10.26
2019-05-10T22:05:21.418Z,10.29
2019-05-10T22:07:55.136Z,10.33
2019-05-10T22:10:28.475Z,10.35
2019-05-10T22:13:02.445Z,10.38
2019-05-10T22:15:35.869Z,10.38
2019-05-10T22:18:09.514Z,10.37
2019-05-10T22:20:44.044Z,10.31
2019-05-10T22:23:17.445Z,10.27
2019-05-10T22:25:50.864Z,10.26
2019-05-10T22:28:24.585Z,10.23
2019-05-10T22:30:58.277Z,10.19
2019-05-10T22:33:31.897Z,10.11
2019-05-10T22:36:05.526Z,10.06
2019-05-10T22:38:39.890Z,10.04
2019-05-10T22:41:13.017Z,10.05
2019-05-10T22:43:46.658Z,10.04
2019-05-10T22:46:19.974Z,10.05
2019-05-10T22:48:53.103Z,10.05
2019-05-10T22:51:27.175Z,9.91
2019-05-10T22:54:01.153Z,9.77
2019-05-10T22:56:34.882Z,9.63
2019-05-10T22:59:08.632Z,9.50
2019-05-10T23:01:42.104Z,9.40
2019-05-10T23:04:17.361Z,9.32
2019-05-10T23:06:50.792Z,9.29
2019-05-10T23:09:26.949Z,9.22
2019-05-10T23:12:01.001Z,9.20
2019-05-10T23:14:35.337Z,9.15
2019-05-10T23:17:08.854Z,9.14
2019-05-10T23:19:41.985Z,9.14
2019-05-10T23:22:15.404Z,9.06
2019-05-10T23:24:49.477Z,9.01
2019-05-10T23:27:22.721Z,8.95
2019-05-10T23:29:56.090Z,8.93
2019-05-10T23:32:29.429Z,8.89
2019-05-10T23:35:03.185Z,8.85
2019-05-10T23:37:36.434Z,8.81
2019-05-10T23:40:10.072Z,8.81
2019-05-10T23:42:44.047Z,8.73
2019-05-10T23:45:17.685Z,8.68
2019-05-10T23:47:51.329Z,8.67
2019-05-10T23:50:24.909Z,8.70
2019-05-10T23:53:00.624Z,8.69
2019-05-10T23:55:33.741Z,8.61
2019-05-10T23:58:06.774Z,8.57
